createdAt,value
2018-05-21T00:00:29.062Z,19.25
2018-05-21T00:02:55.468Z,19.03
2018-05-21T00:05:21.890Z,19.01
2018-05-21T00:07:48.253Z,18.98
2018-05-21T00:10:14.599Z,18.94
2018-05-21T00:12:40.986Z,18.89
2018-05-21T00:15:07.402Z,18.92
2018-05-21T00:17:33.789Z,19.00
2018-05-21T00:20:00.210Z,19.09
2018-05-21T00:22:26.574Z,19.10
2018-05-21T00:24:52.968Z,19.02
2018-05-21T00:27:19.265Z,19.15
2018-05-21T00:29:45.605Z,18.98
2018-05-21T00:32:12.009Z,18.91
2018-05-21T00:34:38.517Z,18.94
2018-05-21T00:37:04.922Z,18.84
2018-05-21T00:39:31.303Z,18.75
2018-05-21T00:41:57.694Z,18.70
2018-05-21T00:44:24.108Z,18.57
2018-05-21T00:46:50.526Z,18.55
2018-05-21T00:49:16.942Z,18.59
2018-05-21T00:51:43.448Z,18.59
2018-05-21T00:54:09.838Z,18.68
2018-05-21T00:56:36.241Z,18.78
2018-05-21T00:59:02.646Z,18.84
2018-05-21T01:01:29.135Z,18.78
2018-05-21T01:03:55.461Z,18.87
2018-05-21T01:06:21.838Z,18.75
2018-05-21T01:08:48.216Z,18.53
2018-05-21T01:11:14.616Z,18.50
2018-05-21T01:13:41.072Z,18.43
2018-05-21T01:16:07.518Z,18.41
2018-05-21T01:18:33.917Z,18.38
2018-05-21T01:21:00.312Z,18.37
2018-05-21T01:23:26.748Z,18.27
2018-05-21T01:25:53.163Z,18.33
2018-05-21T01:28:19.590Z,18.26
2018-05-21T01:30:46.153Z,18.12
2018-05-21T01:33:12.541Z,18.12
2018-05-21T01:35:38.914Z,18.19
2018-05-21T01:38:05.313Z,18.21
2018-05-21T01:40:31.742Z,18.20
2018-05-21T01:42:59.529Z,18.23
2018-05-21T01:45:25.916Z,18.17
2018-05-21T01:47:52.416Z,18.17
2018-05-21T01:50:18.788Z,18.23
2018-05-21T01:52:45.180Z,18.16
2018-05-21T01:55:11.594Z,18.36
2018-05-21T01:57:37.997Z,18.37
2018-05-21T02:00:05.453Z,18.38
2018-05-21T02:02:31.862Z,18.44
2018-05-21T02:04:58.268Z,18.24
2018-05-21T02:07:24.698Z,18.15
2018-05-21T02:09:51.074Z,18.22
2018-05-21T02:12:17.479Z,18.29
2018-05-21T02:14:44.104Z,18.26
2018-05-21T02:17:10.516Z,18.12
2018-05-21T02:19:36.886Z,18.15
2018-05-21T02:22:03.408Z,18.04
2018-05-21T02:24:29.825Z,17.97
2018-05-21T02:26:56.280Z,17.98
2018-05-21T02:29:22.706Z,17.95
2018-05-21T02:31:49.139Z,18.03
2018-05-21T02:34:15.531Z,18.05
2018-05-21T02:36:41.916Z,18.00
2018-05-21T02:39:08.315Z,17.98
2018-05-21T02:41:34.725Z,17.88
2018-05-21T02:44:01.109Z,17.89
2018-05-21T02:46:27.503Z,18.01
2018-05-21T02:48:53.997Z,18.04
2018-05-21T02:51:20.391Z,17.75
2018-05-21T02:53:46.755Z,17.70
2018-05-21T02:56:13.182Z,17.58
2018-05-21T02:58:40.448Z,17.56
2018-05-21T03:01:06.831Z,17.64
2018-05-21T03:03:33.233Z,17.63
2018-05-21T03:05:59.653Z,17.69
2018-05-21T03:08:26.079Z,17.61
2018-05-21T03:10:52.509Z,17.68
2018-05-21T03:13:19.021Z,17.59
2018-05-21T03:15:45.433Z,17.73
2018-05-21T03:18:11.886Z,17.74
2018-05-21T03:20:38.241Z,17.72
2018-05-21T03:23:04.652Z,17.83
2018-05-21T03:25:31.033Z,17.88
2018-05-21T03:27:57.410Z,18.18
2018-05-21T03:30:23.845Z,18.24
2018-05-21T03:32:50.219Z,18.36
2018-05-21T03:35:16.650Z,18.34
2018-05-21T03:37:43.078Z,18.30
2018-05-21T03:40:09.537Z,18.31
2018-05-21T03:42:35.894Z,18.29
2018-05-21T03:45:02.415Z,18.31
2018-05-21T03:47:28.791Z,18.38
2018-05-21T03:49:55.197Z,18.34
2018-05-21T03:52:21.614Z,18.19
2018-05-21T03:54:48.105Z,18.07
2018-05-21T03:57:14.454Z,17.90
2018-05-21T03:59:52.989Z,17.92
2018-05-21T04:02:31.704Z,18.14
2018-05-21T04:04:58.313Z,18.11
2018-05-21T04:07:24.730Z,18.06
2018-05-21T04:09:51.157Z,17.94
2018-05-21T04:12:18.515Z,18.00
2018-05-21T04:14:45.227Z,18.07
2018-05-21T04:17:11.768Z,17.84
2018-05-21T04:19:38.507Z,17.74
2018-05-21T04:22:04.909Z,17.91
2018-05-21T04:24:31.318Z,17.94
2018-05-21T04:26:57.772Z,17.83
2018-05-21T04:29:24.213Z,17.67
2018-05-21T04:31:50.623Z,17.91
2018-05-21T04:34:17.071Z,18.11
2018-05-21T04:36:43.802Z,18.07
2018-05-21T04:39:10.204Z,18.21
2018-05-21T04:41:36.585Z,18.16
2018-05-21T04:44:03.043Z,18.22
2018-05-21T04:46:29.446Z,18.19
2018-05-21T04:48:55.918Z,18.09
2018-05-21T04:51:22.307Z,18.69
2018-05-21T04:53:48.714Z,19.10
2018-05-21T04:56:15.098Z,19.32
2018-05-21T04:58:41.434Z,18.80
2018-05-21T05:01:07.869Z,19.30
2018-05-21T05:03:34.282Z,19.71
2018-05-21T05:06:00.719Z,19.95
2018-05-21T05:08:27.348Z,19.68
2018-05-21T05:10:54.109Z,19.55
2018-05-21T05:13:20.449Z,19.36
2018-05-21T05:15:46.888Z,19.47
2018-05-21T05:18:13.248Z,19.59
2018-05-21T05:20:39.650Z,20.09
2018-05-21T05:23:06.110Z,19.81
2018-05-21T05:25:32.606Z,20.03
2018-05-21T05:27:58.997Z,20.18
2018-05-21T05:30:25.370Z,19.98
2018-05-21T05:32:51.971Z,19.86
2018-05-21T05:35:18.531Z,19.90
2018-05-21T05:37:45.010Z,19.98
2018-05-21T05:40:12.525Z,20.08
2018-05-21T05:42:38.942Z,20.49
2018-05-21T05:45:06.574Z,20.54
2018-05-21T05:47:33.024Z,20.63
2018-05-21T05:49:59.691Z,21.07
2018-05-21T05:52:26.134Z,21.32
2018-05-21T05:54:52.521Z,21.31
2018-05-21T05:57:18.978Z,21.52
2018-05-21T05:59:45.538Z,21.53
2018-05-21T06:02:11.896Z,21.26
2018-05-21T06:04:38.500Z,21.57
2018-05-21T06:07:05.372Z,21.86
2018-05-21T06:09:32.031Z,21.64
2018-05-21T06:11:58.438Z,21.23
2018-05-21T06:14:24.829Z,21.28
2018-05-21T06:16:51.509Z,21.27
2018-05-21T06:19:18.149Z,21.11
2018-05-21T06:21:44.630Z,21.54
2018-05-21T06:24:11.274Z,21.77
2018-05-21T06:26:37.695Z,21.88
2018-05-21T06:29:04.215Z,21.77
2018-05-21T06:31:30.751Z,21.84
2018-05-21T06:33:57.466Z,22.08
2018-05-21T06:36:23.924Z,22.11
2018-05-21T06:38:50.467Z,22.03
2018-05-21T06:41:16.871Z,22.18
2018-05-21T06:43:43.278Z,22.11
2018-05-21T06:46:09.838Z,22.30
2018-05-21T06:48:36.382Z,22.34
2018-05-21T06:51:02.914Z,22.52
2018-05-21T06:53:29.386Z,22.56
2018-05-21T06:55:55.905Z,22.82
2018-05-21T06:58:22.320Z,22.93
2018-05-21T07:00:48.962Z,22.77
2018-05-21T07:03:15.418Z,22.82
2018-05-21T07:05:41.843Z,22.97
2018-05-21T07:08:08.299Z,22.81
2018-05-21T07:10:34.710Z,22.86
2018-05-21T07:13:01.488Z,23.00
2018-05-21T07:15:28.062Z,22.76
2018-05-21T07:17:54.577Z,22.80
2018-05-21T07:20:21.162Z,22.79
2018-05-21T07:22:47.921Z,22.79
2018-05-21T07:25:14.386Z,23.01
2018-05-21T07:27:40.768Z,23.23
2018-05-21T07:30:07.305Z,23.30
2018-05-21T07:32:33.691Z,22.93
2018-05-21T07:35:00.299Z,23.22
2018-05-21T07:37:26.632Z,23.08
2018-05-21T07:39:53.044Z,23.10
2018-05-21T07:42:19.445Z,23.33
2018-05-21T07:44:46.217Z,23.39
2018-05-21T07:47:13.439Z,23.45
2018-05-21T07:49:39.858Z,23.23
2018-05-21T07:52:06.305Z,23.32
2018-05-21T07:54:32.746Z,23.25
2018-05-21T07:56:59.149Z,23.28
2018-05-21T07:59:25.592Z,23.34
2018-05-21T08:01:52.168Z,23.00
2018-05-21T08:04:18.838Z,23.14
2018-05-21T08:06:45.619Z,23.28
2018-05-21T08:09:12.015Z,23.46
2018-05-21T08:11:38.519Z,23.46
2018-05-21T08:14:04.950Z,23.63
2018-05-21T08:16:33.469Z,23.75
2018-05-21T08:19:00.868Z,23.73
2018-05-21T08:21:27.728Z,23.76
2018-05-21T08:23:54.270Z,23.85
2018-05-21T08:26:20.880Z,23.82
2018-05-21T08:28:47.317Z,23.94
2018-05-21T08:31:13.775Z,23.84
2018-05-21T08:33:40.349Z,23.90
2018-05-21T08:36:06.848Z,24.05
2018-05-21T08:38:33.317Z,23.99
2018-05-21T08:40:59.840Z,23.72
2018-05-21T08:43:26.232Z,23.83
2018-05-21T08:45:52.654Z,24.02
2018-05-21T08:48:19.082Z,24.28
2018-05-21T08:50:45.828Z,24.30
2018-05-21T08:53:12.317Z,24.46
2018-05-21T08:55:38.733Z,24.53
2018-05-21T08:58:05.182Z,24.51
2018-05-21T09:00:31.631Z,24.47
2018-05-21T09:02:58.050Z,24.32
2018-05-21T09:05:25.661Z,24.14
2018-05-21T09:07:52.147Z,24.16
2018-05-21T09:10:19.180Z,24.18
2018-05-21T09:12:45.733Z,23.90
2018-05-21T09:15:12.161Z,23.72
2018-05-21T09:17:39.492Z,23.77
2018-05-21T09:20:06.049Z,23.81
2018-05-21T09:22:32.511Z,23.86
2018-05-21T09:24:59.712Z,23.87
2018-05-21T09:27:26.252Z,24.05
2018-05-21T09:29:52.684Z,23.84
2018-05-21T09:32:19.470Z,23.97
2018-05-21T09:34:45.865Z,23.89
2018-05-21T09:37:13.232Z,24.00
2018-05-21T09:39:41.905Z,24.19
2018-05-21T09:42:08.473Z,24.41
2018-05-21T09:44:35.059Z,24.49
2018-05-21T09:47:01.695Z,24.35
2018-05-21T09:49:28.106Z,24.53
2018-05-21T09:51:54.685Z,24.63
2018-05-21T09:54:21.320Z,24.74
2018-05-21T09:56:47.754Z,24.58
2018-05-21T09:59:14.138Z,24.52
2018-05-21T10:01:40.620Z,24.65
2018-05-21T10:04:08.748Z,24.63
2018-05-21T10:06:35.916Z,24.72
2018-05-21T10:09:02.614Z,24.78
2018-05-21T10:11:29.270Z,24.85
2018-05-21T10:13:56.125Z,24.84
2018-05-21T10:16:22.678Z,24.77
2018-05-21T10:18:49.275Z,24.85
2018-05-21T10:21:15.644Z,24.92
2018-05-21T10:23:42.161Z,25.04
2018-05-21T10:26:09.296Z,24.95
2018-05-21T10:28:35.764Z,25.06
2018-05-21T10:31:02.127Z,25.13
2018-05-21T10:33:28.918Z,25.02
2018-05-21T10:35:57.207Z,25.20
2018-05-21T10:38:23.627Z,25.25
2018-05-21T10:40:50.110Z,25.14
2018-05-21T10:43:16.518Z,25.29
2018-05-21T10:45:42.978Z,25.26
2018-05-21T10:48:09.617Z,25.24
2018-05-21T10:50:36.152Z,25.36
2018-05-21T10:53:02.687Z,25.35
2018-05-21T10:55:29.065Z,25.33
2018-05-21T10:57:55.917Z,25.28
2018-05-21T11:00:22.330Z,25.31
2018-05-21T11:02:48.731Z,25.37
2018-05-21T11:05:15.837Z,25.51
2018-05-21T11:07:42.266Z,25.41
2018-05-21T11:10:08.861Z,25.34
2018-05-21T11:12:35.463Z,25.28
2018-05-21T11:15:01.860Z,25.53
2018-05-21T11:17:28.278Z,25.55
2018-05-21T11:19:54.726Z,25.60
2018-05-21T11:22:21.144Z,25.62
2018-05-21T11:24:47.535Z,25.57
2018-05-21T11:27:14.244Z,25.62
2018-05-21T11:29:40.598Z,25.59
2018-05-21T11:32:07.037Z,25.77
2018-05-21T11:34:34.280Z,25.55
2018-05-21T11:37:00.744Z,25.45
2018-05-21T11:39:27.180Z,25.66
2018-05-21T11:41:53.593Z,25.63
2018-05-21T11:44:19.978Z,25.45
2018-05-21T11:46:46.374Z,25.44
2018-05-21T11:49:13.557Z,25.42
2018-05-21T11:51:39.954Z,25.60
2018-05-21T11:54:06.365Z,25.66
2018-05-21T11:56:32.809Z,25.64
2018-05-21T11:58:59.173Z,25.80
2018-05-21T12:01:25.656Z,25.65
2018-05-21T12:03:52.280Z,25.59
2018-05-21T12:06:18.942Z,25.67
2018-05-21T12:08:45.336Z,25.89
2018-05-21T12:11:11.713Z,25.85
2018-05-21T12:13:38.133Z,26.09
2018-05-21T12:16:04.590Z,25.98
2018-05-21T12:18:31.014Z,26.01
2018-05-21T12:20:57.645Z,25.70
2018-05-21T12:23:24.417Z,25.87
2018-05-21T12:25:51.085Z,25.68
2018-05-21T12:28:17.712Z,25.62
2018-05-21T12:30:44.086Z,25.72
2018-05-21T12:33:10.521Z,25.50
2018-05-21T12:35:36.869Z,25.80
2018-05-21T12:38:03.395Z,25.89
2018-05-21T12:40:29.804Z,25.82
2018-05-21T12:42:56.177Z,25.83
2018-05-21T12:45:22.593Z,26.00
2018-05-21T12:47:49.006Z,26.07
2018-05-21T12:50:15.439Z,25.95
2018-05-21T12:52:41.896Z,26.25
2018-05-21T12:55:08.504Z,26.27
2018-05-21T12:57:35.130Z,25.93
2018-05-21T13:00:02.479Z,26.10
2018-05-21T13:02:28.847Z,25.58
2018-05-21T13:04:56.322Z,25.84
2018-05-21T13:07:22.750Z,25.86
2018-05-21T13:09:49.184Z,25.94
2018-05-21T13:12:15.608Z,25.88
2018-05-21T13:14:42.056Z,26.00
2018-05-21T13:17:08.444Z,25.90
2018-05-21T13:19:34.842Z,26.02
2018-05-21T13:22:01.386Z,26.09
2018-05-21T13:24:28.282Z,25.87
2018-05-21T13:26:55.242Z,25.82
2018-05-21T13:29:21.614Z,26.05
2018-05-21T13:31:48.149Z,26.15
2018-05-21T13:34:14.579Z,26.25
2018-05-21T13:36:40.978Z,26.18
2018-05-21T13:39:07.438Z,25.93
2018-05-21T13:41:33.854Z,26.27
2018-05-21T13:44:00.327Z,26.23
2018-05-21T13:46:26.746Z,26.56
2018-05-21T13:48:53.143Z,26.54
2018-05-21T13:51:19.721Z,26.66
2018-05-21T13:53:46.125Z,26.51
2018-05-21T13:56:12.709Z,26.23
2018-05-21T13:58:39.291Z,26.40
2018-05-21T14:01:05.733Z,26.38
2018-05-21T14:03:32.206Z,26.46
2018-05-21T14:05:58.601Z,26.49
2018-05-21T14:08:25.151Z,26.55
2018-05-21T14:10:51.584Z,26.31
2018-05-21T14:13:17.985Z,26.15
2018-05-21T14:15:44.978Z,26.43
2018-05-21T14:18:11.370Z,26.41
2018-05-21T14:20:37.726Z,26.61
2018-05-21T14:23:04.189Z,26.72
2018-05-21T14:25:30.638Z,26.42
2018-05-21T14:27:57.062Z,26.14
2018-05-21T14:30:23.671Z,25.98
2018-05-21T14:32:50.306Z,26.20
2018-05-21T14:35:16.717Z,26.47
2018-05-21T14:37:43.185Z,26.55
2018-05-21T14:40:09.658Z,26.56
2018-05-21T14:42:36.144Z,26.14
2018-05-21T14:45:02.604Z,26.02
2018-05-21T14:47:29.251Z,25.61
2018-05-21T14:49:55.623Z,25.61
2018-05-21T14:52:22.289Z,25.58
2018-05-21T14:54:48.767Z,25.94
2018-05-21T14:57:15.362Z,25.97
2018-05-21T14:59:41.732Z,26.37
2018-05-21T15:02:08.224Z,26.36
2018-05-21T15:04:34.679Z,26.18
2018-05-21T15:07:01.058Z,25.99
2018-05-21T15:09:27.574Z,26.25
2018-05-21T15:11:53.964Z,26.53
2018-05-21T15:14:20.515Z,26.59
2018-05-21T15:16:47.827Z,26.37
2018-05-21T15:19:14.282Z,26.43
2018-05-21T15:21:40.798Z,26.28
2018-05-21T15:24:07.232Z,25.90
2018-05-21T15:26:33.871Z,26.27
2018-05-21T15:29:00.462Z,26.31
2018-05-21T15:31:26.889Z,26.41
2018-05-21T15:33:53.265Z,26.46
2018-05-21T15:36:19.757Z,26.48
2018-05-21T15:38:46.162Z,26.47
2018-05-21T15:41:12.596Z,26.20
2018-05-21T15:43:39.115Z,26.17
2018-05-21T15:46:05.875Z,26.02
2018-05-21T15:48:32.310Z,26.05
2018-05-21T15:50:58.699Z,26.19
2018-05-21T15:53:25.095Z,25.96
2018-05-21T15:55:52.765Z,26.14
2018-05-21T15:58:19.145Z,26.26
2018-05-21T16:00:46.590Z,26.20
2018-05-21T16:03:14.057Z,26.01
2018-05-21T16:05:40.421Z,25.80
2018-05-21T16:08:07.062Z,26.11
2018-05-21T16:10:33.474Z,26.19
2018-05-21T16:12:59.813Z,26.13
2018-05-21T16:15:26.285Z,26.03
2018-05-21T16:17:52.676Z,25.86
2018-05-21T16:20:19.218Z,25.86
2018-05-21T16:22:45.626Z,25.94
2018-05-21T16:25:12.006Z,26.01
2018-05-21T16:27:38.421Z,25.97
2018-05-21T16:30:04.979Z,25.98
2018-05-21T16:32:31.390Z,25.86
2018-05-21T16:34:57.761Z,25.54
2018-05-21T16:37:24.125Z,25.91
2018-05-21T16:39:50.489Z,25.97
2018-05-21T16:42:16.867Z,25.92
2018-05-21T16:44:43.276Z,25.46
2018-05-21T16:47:09.655Z,25.46
2018-05-21T16:49:36.046Z,25.49
2018-05-21T16:52:02.498Z,25.51
2018-05-21T16:54:28.889Z,25.61
2018-05-21T16:56:55.290Z,25.28
2018-05-21T16:59:21.798Z,25.51
2018-05-21T17:01:48.152Z,25.71
2018-05-21T17:04:14.520Z,25.57
2018-05-21T17:06:40.913Z,25.40
2018-05-21T17:09:07.280Z,25.07
2018-05-21T17:11:33.649Z,25.33
2018-05-21T17:14:00.088Z,24.93
2018-05-21T17:16:26.485Z,25.10
2018-05-21T17:18:52.861Z,25.26
2018-05-21T17:21:19.256Z,25.17
2018-05-21T17:23:45.649Z,25.11
2018-05-21T17:26:11.968Z,25.18
2018-05-21T17:28:38.389Z,25.26
2018-05-21T17:31:04.784Z,24.64
2018-05-21T17:33:31.299Z,24.49
2018-05-21T17:35:57.709Z,24.18
2018-05-21T17:38:24.085Z,24.31
2018-05-21T17:40:50.472Z,24.06
2018-05-21T17:43:16.848Z,24.60
2018-05-21T17:45:43.270Z,24.55
2018-05-21T17:48:09.678Z,24.44
2018-05-21T17:50:36.132Z,24.53
2018-05-21T17:53:02.503Z,24.53
2018-05-21T17:55:28.955Z,24.42
2018-05-21T17:57:55.468Z,24.48
2018-05-21T18:00:21.873Z,23.97
2018-05-21T18:02:48.285Z,24.30
2018-05-21T18:05:14.648Z,24.40
2018-05-21T18:07:41.013Z,24.32
2018-05-21T18:10:07.435Z,24.00
2018-05-21T18:12:33.802Z,23.67
2018-05-21T18:15:01.132Z,23.82
2018-05-21T18:17:27.542Z,23.21
2018-05-21T18:19:54.049Z,23.38
2018-05-21T18:22:20.456Z,23.49
2018-05-21T18:24:46.841Z,23.50
2018-05-21T18:27:13.214Z,23.62
2018-05-21T18:29:39.634Z,23.04
2018-05-21T18:32:06.050Z,22.86
2018-05-21T18:34:32.466Z,22.45
2018-05-21T18:36:58.918Z,22.44
2018-05-21T18:39:25.416Z,22.33
2018-05-21T18:41:51.745Z,22.57
2018-05-21T18:44:18.152Z,22.36
2018-05-21T18:46:44.485Z,22.52
2018-05-21T18:49:10.843Z,22.60
2018-05-21T18:51:37.361Z,22.74
2018-05-21T18:54:03.916Z,22.24
2018-05-21T18:56:30.281Z,22.01
2018-05-21T18:58:56.681Z,21.95
2018-05-21T19:01:23.014Z,22.06
2018-05-21T19:03:49.372Z,21.61
2018-05-21T19:06:15.754Z,21.96
2018-05-21T19:08:42.174Z,22.05
2018-05-21T19:11:08.577Z,21.98
2018-05-21T19:13:35.003Z,22.04
2018-05-21T19:16:01.499Z,22.22
2018-05-21T19:18:28.764Z,22.13
2018-05-21T19:20:55.170Z,22.02
2018-05-21T19:23:21.549Z,21.81
2018-05-21T19:25:47.918Z,22.11
2018-05-21T19:28:14.341Z,22.02
2018-05-21T19:30:40.708Z,21.84
2018-05-21T19:33:07.110Z,21.38
2018-05-21T19:35:33.509Z,21.39
2018-05-21T19:38:00.128Z,21.64
2018-05-21T19:40:26.700Z,21.35
2018-05-21T19:42:53.053Z,21.26
2018-05-21T19:45:19.529Z,21.38
2018-05-21T19:47:46.168Z,21.55
2018-05-21T19:50:12.517Z,21.50
2018-05-21T19:52:38.906Z,21.70
2018-05-21T19:55:05.365Z,21.50
2018-05-21T19:57:31.766Z,21.39
2018-05-21T19:59:58.244Z,21.52
2018-05-21T20:02:24.638Z,21.49
2018-05-21T20:04:51.070Z,21.40
2018-05-21T20:07:17.547Z,21.43
2018-05-21T20:09:43.937Z,21.67
2018-05-21T20:12:10.277Z,21.22
2018-05-21T20:14:36.606Z,21.05
2018-05-21T20:17:03.030Z,21.02
2018-05-21T20:19:29.441Z,21.04
2018-05-21T20:21:55.854Z,20.89
2018-05-21T20:24:22.326Z,20.87
2018-05-21T20:26:48.760Z,20.87
2018-05-21T20:29:15.185Z,20.97
2018-05-21T20:31:41.561Z,21.09
2018-05-21T20:34:07.955Z,20.19
2018-05-21T20:36:34.354Z,20.40
2018-05-21T20:39:00.754Z,20.48
2018-05-21T20:41:27.168Z,20.20
2018-05-21T20:43:53.593Z,20.31
2018-05-21T20:46:19.994Z,20.46
2018-05-21T20:48:47.250Z,20.59
2018-05-21T20:51:13.637Z,20.75
2018-05-21T20:53:40.001Z,20.63
2018-05-21T20:56:06.530Z,20.59
2018-05-21T20:58:32.785Z,20.69
2018-05-21T21:00:59.200Z,20.12
2018-05-21T21:03:25.578Z,20.13
2018-05-21T21:05:51.968Z,20.23
2018-05-21T21:08:18.374Z,20.71
2018-05-21T21:10:44.804Z,20.44
2018-05-21T21:13:11.607Z,20.59
2018-05-21T21:15:37.987Z,20.32
2018-05-21T21:18:04.419Z,20.46
2018-05-21T21:20:30.829Z,19.97
2018-05-21T21:22:57.227Z,19.83
2018-05-21T21:25:23.609Z,20.15
2018-05-21T21:27:50.018Z,19.79
2018-05-21T21:30:16.334Z,19.61
2018-05-21T21:32:42.743Z,19.66
2018-05-21T21:35:09.138Z,19.94
2018-05-21T21:37:35.498Z,19.77
2018-05-21T21:40:01.814Z,20.18
2018-05-21T21:42:28.158Z,20.46
2018-05-21T21:44:54.516Z,20.34
2018-05-21T21:47:21.743Z,20.56
2018-05-21T21:49:49.003Z,20.83
2018-05-21T21:52:15.435Z,21.17
2018-05-21T21:54:41.904Z,20.93
2018-05-21T21:57:08.298Z,21.36
2018-05-21T21:59:34.970Z,20.40
2018-05-21T22:02:01.314Z,19.35
2018-05-21T22:04:27.658Z,19.81
2018-05-21T22:06:54.138Z,19.92
2018-05-21T22:09:20.455Z,20.54
2018-05-21T22:11:47.718Z,20.48
2018-05-21T22:14:14.151Z,20.17
2018-05-21T22:16:41.764Z,20.41
2018-05-21T22:19:08.243Z,20.32
2018-05-21T22:21:34.682Z,19.83
2018-05-21T22:24:01.100Z,20.01
2018-05-21T22:26:27.628Z,20.20
2018-05-21T22:28:54.725Z,19.60
2018-05-21T22:31:21.273Z,19.69
2018-05-21T22:33:47.963Z,19.69
2018-05-21T22:36:14.450Z,20.01
2018-05-21T22:38:40.866Z,20.09
2018-05-21T22:41:07.166Z,19.75
2018-05-21T22:43:34.399Z,19.91
2018-05-21T22:46:00.710Z,20.04
2018-05-21T22:48:27.043Z,19.99
2018-05-21T22:50:53.405Z,20.28
2018-05-21T22:53:19.729Z,20.15
2018-05-21T22:55:46.114Z,19.64
2018-05-21T22:58:13.978Z,20.17
2018-05-21T23:00:40.340Z,19.80
2018-05-21T23:03:06.706Z,19.64
2018-05-21T23:05:33.920Z,19.98
2018-05-21T23:08:00.293Z,19.69
2018-05-21T23:10:26.807Z,20.53
2018-05-21T23:12:53.301Z,20.30
2018-05-21T23:15:19.710Z,19.96
2018-05-21T23:17:46.110Z,19.84
2018-05-21T23:20:12.493Z,20.19
2018-05-21T23:22:43.862Z,19.66
2018-05-21T23:25:10.423Z,19.78
2018-05-21T23:27:36.831Z,20.36
2018-05-21T23:30:03.320Z,20.26
2018-05-21T23:32:29.806Z,20.30
2018-05-21T23:34:56.235Z,19.98
2018-05-21T23:37:22.641Z,20.19
2018-05-21T23:39:49.024Z,19.86
2018-05-21T23:42:16.046Z,19.81
2018-05-21T23:44:42.610Z,20.12
2018-05-21T23:47:09.962Z,19.91
2018-05-21T23:49:36.370Z,19.82
2018-05-21T23:52:02.786Z,19.65
2018-05-21T23:54:29.165Z,19.56
2018-05-21T23:56:55.552Z,19.65
2018-05-21T23:59:21.930Z,19.68
